createdAt,value
2018-02-08T00:00:28.553Z,3.25
2018-02-08T00:02:31.078Z,4.30
2018-02-08T00:04:33.578Z,3.85
2018-02-08T00:06:36.042Z,4.40
2018-02-08T00:08:38.564Z,5.62
2018-02-08T00:10:41.008Z,5.15
2018-02-08T00:12:43.437Z,3.50
2018-02-08T00:14:45.856Z,4.87
2018-02-08T00:16:48.293Z,4.15
2018-02-08T00:18:50.836Z,4.87
2018-02-08T00:20:53.439Z,4.25
2018-02-08T00:22:55.868Z,3.65
2018-02-08T00:24:58.301Z,5.20
2018-02-08T00:27:00.729Z,4.45
2018-02-08T00:29:03.210Z,3.33
2018-02-08T00:31:05.661Z,4.43
2018-02-08T00:33:08.092Z,3.60
2018-02-08T00:35:10.725Z,2.95
2018-02-08T00:37:13.213Z,3.65
2018-02-08T00:39:15.765Z,3.78
2018-02-08T00:41:18.333Z,4.75
2018-02-08T00:43:20.772Z,3.40
2018-02-08T00:45:23.972Z,4.15
2018-02-08T00:47:26.401Z,3.17
2018-02-08T00:49:28.860Z,4.70
2018-02-08T00:51:31.293Z,3.35
2018-02-08T00:53:33.857Z,4.00
2018-02-08T00:55:36.288Z,4.25
2018-02-08T00:57:38.917Z,4.10
2018-02-08T00:59:41.344Z,3.03
2018-02-08T01:01:44.060Z,3.65
2018-02-08T01:03:46.536Z,2.60
2018-02-08T01:05:49.204Z,3.10
2018-02-08T01:07:51.673Z,4.22
2018-02-08T01:09:54.173Z,3.75
2018-02-08T01:11:56.704Z,3.72
2018-02-08T01:13:59.137Z,4.47
2018-02-08T01:16:03.066Z,3.67
2018-02-08T01:18:05.541Z,4.10
2018-02-08T01:20:08.001Z,3.03
2018-02-08T01:22:10.421Z,4.03
2018-02-08T01:24:12.840Z,2.83
2018-02-08T01:26:16.201Z,3.28
2018-02-08T01:28:18.703Z,3.30
2018-02-08T01:30:22.016Z,3.58
2018-02-08T01:32:24.581Z,2.67
2018-02-08T01:34:27.057Z,4.10
2018-02-08T01:36:29.481Z,2.75
2018-02-08T01:38:32.005Z,5.75
2018-02-08T01:40:34.545Z,3.22
2018-02-08T01:42:37.008Z,3.47
2018-02-08T01:44:39.609Z,3.10
2018-02-08T01:46:42.090Z,3.67
2018-02-08T01:48:44.744Z,2.62
2018-02-08T01:50:47.233Z,3.28
2018-02-08T01:52:49.714Z,5.18
2018-02-08T01:54:52.257Z,3.20
2018-02-08T01:56:54.694Z,3.37
2018-02-08T01:58:57.197Z,4.28
2018-02-08T02:00:59.778Z,4.45
2018-02-08T02:03:02.214Z,3.25
2018-02-08T02:05:05.405Z,4.37
2018-02-08T02:07:07.898Z,3.83
2018-02-08T02:09:10.324Z,3.47
2018-02-08T02:11:14.249Z,2.80
2018-02-08T02:13:16.747Z,3.67
2018-02-08T02:15:19.319Z,2.45
2018-02-08T02:17:21.749Z,3.70
2018-02-08T02:19:24.933Z,3.50
2018-02-08T02:21:27.537Z,2.25
2018-02-08T02:23:30.088Z,3.87
2018-02-08T02:25:32.516Z,3.53
2018-02-08T02:27:35.061Z,4.03
2018-02-08T02:29:37.632Z,3.62
2018-02-08T02:31:40.052Z,3.62
2018-02-08T02:33:42.477Z,2.83
2018-02-08T02:35:44.893Z,3.50
2018-02-08T02:37:47.333Z,3.12
2018-02-08T02:39:49.748Z,3.17
2018-02-08T02:41:52.938Z,4.15
2018-02-08T02:43:55.550Z,3.15
2018-02-08T02:45:57.965Z,2.85
2018-02-08T02:48:01.286Z,3.45
2018-02-08T02:50:03.962Z,4.37
2018-02-08T02:52:06.514Z,3.83
2018-02-08T02:54:08.976Z,2.83
2018-02-08T02:56:11.573Z,2.83
2018-02-08T02:58:14.046Z,3.05
2018-02-08T03:00:16.485Z,3.12
2018-02-08T03:02:19.690Z,2.90
2018-02-08T03:04:22.128Z,3.50
2018-02-08T03:06:24.625Z,3.97
2018-02-08T03:08:27.048Z,3.42
2018-02-08T03:10:29.609Z,3.72
2018-02-08T03:12:32.012Z,3.20
2018-02-08T03:14:34.501Z,3.10
2018-02-08T03:16:36.937Z,3.87
2018-02-08T03:18:40.866Z,3.33
2018-02-08T03:20:43.312Z,3.50
2018-02-08T03:22:47.249Z,3.33
2018-02-08T03:24:49.841Z,3.28
2018-02-08T03:26:52.404Z,3.08
2018-02-08T03:28:58.421Z,4.40
2018-02-08T03:31:01.733Z,2.87
2018-02-08T03:33:04.228Z,2.97
2018-02-08T03:35:06.661Z,4.18
2018-02-08T03:37:09.854Z,3.33
2018-02-08T03:39:12.268Z,3.75
2018-02-08T03:41:14.912Z,3.53
2018-02-08T03:43:17.344Z,3.28
2018-02-08T03:45:19.865Z,4.47
2018-02-08T03:47:22.529Z,2.85
2018-02-08T03:49:25.038Z,4.60
2018-02-08T03:51:27.502Z,4.60
2018-02-08T03:53:30.036Z,2.90
2018-02-08T03:55:32.452Z,3.20
2018-02-08T03:57:34.893Z,3.28
2018-02-08T03:59:37.352Z,2.97
2018-02-08T04:01:39.834Z,4.28
2018-02-08T04:03:42.265Z,3.62
2018-02-08T04:05:45.457Z,5.22
2018-02-08T04:07:48.049Z,4.28
2018-02-08T04:09:50.724Z,5.22
2018-02-08T04:11:53.149Z,3.22
2018-02-08T04:13:55.864Z,3.60
2018-02-08T04:15:58.365Z,2.37
2018-02-08T04:18:00.803Z,3.85
2018-02-08T04:20:03.265Z,2.20
2018-02-08T04:22:05.821Z,2.80
2018-02-08T04:24:08.301Z,3.30
2018-02-08T04:26:10.737Z,4.07
2018-02-08T04:28:13.161Z,3.70
2018-02-08T04:30:15.632Z,3.05
2018-02-08T04:32:18.296Z,2.95
2018-02-08T04:34:20.793Z,3.00
2018-02-08T04:36:23.279Z,2.50
2018-02-08T04:38:37.445Z,3.35
2018-02-08T04:40:51.730Z,3.33
2018-02-08T04:43:06.009Z,3.80
2018-02-08T04:45:20.433Z,3.30
2018-02-08T04:47:28.008Z,3.97
2018-02-08T04:49:30.486Z,3.10
2018-02-08T04:51:32.969Z,3.70
2018-02-08T04:53:35.508Z,3.87
2018-02-08T04:55:38.010Z,3.37
2018-02-08T04:57:40.384Z,2.55
2018-02-08T04:59:42.856Z,3.35
2018-02-08T05:01:45.309Z,3.25
2018-02-08T05:03:47.748Z,2.85
2018-02-08T05:05:50.942Z,4.00
2018-02-08T05:07:53.366Z,3.00
2018-02-08T05:09:55.835Z,3.03
2018-02-08T05:11:58.471Z,3.87
2018-02-08T05:14:00.892Z,4.18
2018-02-08T05:16:03.324Z,3.10
2018-02-08T05:18:05.753Z,3.85
2018-02-08T05:20:08.179Z,3.50
2018-02-08T05:22:10.609Z,4.30
2018-02-08T05:24:13.163Z,3.95
2018-02-08T05:26:15.764Z,2.90
2018-02-08T05:28:18.252Z,3.20
2018-02-08T05:30:20.677Z,4.70
2018-02-08T05:32:23.100Z,2.70
2018-02-08T05:34:25.524Z,3.15
2018-02-08T05:36:27.969Z,6.10
2018-02-08T05:38:30.577Z,3.65
2018-02-08T05:40:33.049Z,3.35
2018-02-08T05:42:35.500Z,3.33
2018-02-08T05:44:37.917Z,3.53
2018-02-08T05:46:40.458Z,3.50
2018-02-08T05:48:42.913Z,3.30
2018-02-08T05:50:45.468Z,4.53
2018-02-08T05:52:47.893Z,3.20
2018-02-08T05:54:50.324Z,3.97
2018-02-08T05:56:52.880Z,2.60
2018-02-08T05:58:55.366Z,3.62
2018-02-08T06:00:57.781Z,3.55
2018-02-08T06:03:00.408Z,4.57
2018-02-08T06:05:03.084Z,4.05
2018-02-08T06:07:05.508Z,3.40
2018-02-08T06:09:08.233Z,3.87
2018-02-08T06:11:10.664Z,2.80
2018-02-08T06:13:13.857Z,4.55
2018-02-08T06:15:16.351Z,2.65
2018-02-08T06:17:18.785Z,3.15
2018-02-08T06:19:21.977Z,2.67
2018-02-08T06:21:25.194Z,4.35
2018-02-08T06:23:27.653Z,2.97
2018-02-08T06:25:30.096Z,5.35
2018-02-08T06:27:34.034Z,3.90
2018-02-08T06:29:36.473Z,2.53
2018-02-08T06:31:38.902Z,4.37
2018-02-08T06:33:41.421Z,4.32
2018-02-08T06:35:43.852Z,4.70
2018-02-08T06:37:46.300Z,4.15
2018-02-08T06:39:48.828Z,5.03
2018-02-08T06:41:51.254Z,2.80
2018-02-08T06:43:53.910Z,3.40
2018-02-08T06:45:56.444Z,3.72
2018-02-08T06:47:58.931Z,3.15
2018-02-08T06:50:01.369Z,3.92
2018-02-08T06:52:04.805Z,4.53
2018-02-08T06:54:07.228Z,4.53
2018-02-08T06:56:09.944Z,3.78
2018-02-08T06:58:12.427Z,3.65
2018-02-08T07:00:14.837Z,3.65
2018-02-08T07:02:17.268Z,2.97
2018-02-08T07:04:19.697Z,2.55
2018-02-08T07:06:22.296Z,2.87
2018-02-08T07:08:24.721Z,2.83
2018-02-08T07:10:27.341Z,3.47
2018-02-08T07:12:29.928Z,3.12
2018-02-08T07:14:32.589Z,3.67
2018-02-08T07:16:35.009Z,3.30
2018-02-08T07:18:37.436Z,3.20
2018-02-08T07:20:39.996Z,5.05
2018-02-08T07:22:42.513Z,3.55
2018-02-08T07:24:45.031Z,4.70
2018-02-08T07:26:47.494Z,3.80
2018-02-08T07:28:49.920Z,3.62
2018-02-08T07:30:52.409Z,3.08
2018-02-08T07:32:54.829Z,2.83
2018-02-08T07:34:57.381Z,4.00
2018-02-08T07:36:59.974Z,4.50
2018-02-08T07:39:02.438Z,2.85
2018-02-08T07:41:04.881Z,3.78
2018-02-08T07:43:07.389Z,4.30
2018-02-08T07:45:09.881Z,4.15
2018-02-08T07:47:12.517Z,3.50
2018-02-08T07:49:15.017Z,2.92
2018-02-08T07:51:17.465Z,3.20
2018-02-08T07:53:19.888Z,4.37
2018-02-08T07:55:23.211Z,5.45
2018-02-08T07:57:25.710Z,3.45
2018-02-08T07:59:28.166Z,3.08
2018-02-08T08:01:30.717Z,3.70
2018-02-08T08:03:33.145Z,4.82
2018-02-08T08:05:35.764Z,3.25
2018-02-08T08:07:38.176Z,5.03
2018-02-08T08:09:40.601Z,3.08
2018-02-08T08:11:43.029Z,3.67
2018-02-08T08:13:45.440Z,3.97
2018-02-08T08:15:47.880Z,4.00
2018-02-08T08:17:51.064Z,3.80
2018-02-08T08:19:54.253Z,3.17
2018-02-08T08:21:57.460Z,3.60
2018-02-08T08:23:59.990Z,3.70
2018-02-08T08:26:02.402Z,3.25
2018-02-08T08:28:04.825Z,3.75
2018-02-08T08:30:07.264Z,5.65
2018-02-08T08:32:09.689Z,4.37
2018-02-08T08:34:12.877Z,4.87
2018-02-08T08:36:16.070Z,5.03
2018-02-08T08:38:18.486Z,8.13
2018-02-08T08:40:20.906Z,3.65
2018-02-08T08:42:23.333Z,4.57
2018-02-08T08:44:25.761Z,5.22
2018-02-08T08:46:28.233Z,5.43
2018-02-08T08:48:30.653Z,5.85
2018-02-08T08:50:33.125Z,6.85
2018-02-08T08:52:36.453Z,5.70
2018-02-08T08:54:40.489Z,5.72
2018-02-08T08:56:49.298Z,6.25
2018-02-08T08:58:51.893Z,6.15
2018-02-08T09:00:55.145Z,6.15
2018-02-08T09:02:57.665Z,6.95
2018-02-08T09:05:00.092Z,5.45
2018-02-08T09:07:02.561Z,6.18
2018-02-08T09:09:05.026Z,7.05
2018-02-08T09:11:07.529Z,6.90
2018-02-08T09:13:09.973Z,5.55
2018-02-08T09:15:12.425Z,6.47
2018-02-08T09:17:14.866Z,7.03
2018-02-08T09:19:18.075Z,7.50
2018-02-08T09:21:20.527Z,5.60
2018-02-08T09:23:23.954Z,6.15
2018-02-08T09:25:26.594Z,5.12
2018-02-08T09:27:29.799Z,7.30
2018-02-08T09:29:32.387Z,5.95
2018-02-08T09:31:34.838Z,5.05
2018-02-08T09:33:38.037Z,5.68
2018-02-08T09:35:40.471Z,5.35
2018-02-08T09:37:43.677Z,5.90
2018-02-08T09:39:46.229Z,5.22
2018-02-08T09:41:48.669Z,6.22
2018-02-08T09:43:51.090Z,5.00
2018-02-08T09:45:53.549Z,5.85
2018-02-08T09:47:56.741Z,7.45
2018-02-08T09:49:59.948Z,7.18
2018-02-08T09:52:03.137Z,5.90
2018-02-08T09:54:05.561Z,6.72
2018-02-08T09:56:07.992Z,5.25
2018-02-08T09:58:10.447Z,7.07
2018-02-08T10:00:12.862Z,4.35
2018-02-08T10:02:15.301Z,7.35
2018-02-08T10:04:17.736Z,7.07
2018-02-08T10:06:20.225Z,5.18
2018-02-08T10:08:22.672Z,6.62
2018-02-08T10:10:25.138Z,6.20
2018-02-08T10:12:28.370Z,6.28
2018-02-08T10:14:30.796Z,4.85
2018-02-08T10:16:33.994Z,7.15
2018-02-08T10:18:37.169Z,5.43
2018-02-08T10:20:40.374Z,5.18
2018-02-08T10:22:42.806Z,5.37
2018-02-08T10:24:46.008Z,5.43
2018-02-08T10:26:49.258Z,7.75
2018-02-08T10:28:51.707Z,3.80
2018-02-08T10:30:54.142Z,5.82
2018-02-08T10:32:57.370Z,4.90
2018-02-08T10:34:59.815Z,5.60
2018-02-08T10:37:03.027Z,6.18
2018-02-08T10:39:05.495Z,5.22
2018-02-08T10:41:08.652Z,5.82
2018-02-08T10:43:11.081Z,5.60
2018-02-08T10:45:13.703Z,6.57
2018-02-08T10:47:16.249Z,6.07
2018-02-08T10:49:19.459Z,5.93
2018-02-08T10:51:21.892Z,5.82
2018-02-08T10:53:24.314Z,7.68
2018-02-08T10:55:26.726Z,6.45
2018-02-08T10:57:29.152Z,6.82
2018-02-08T10:59:31.569Z,7.97
2018-02-08T11:01:34.017Z,7.53
2018-02-08T11:03:36.468Z,7.50
2018-02-08T11:05:38.862Z,6.43
2018-02-08T11:07:41.309Z,9.50
2018-02-08T11:09:43.719Z,7.05
2018-02-08T11:11:46.897Z,7.40
2018-02-08T11:13:50.105Z,7.80
2018-02-08T11:15:53.292Z,6.18
2018-02-08T11:17:56.517Z,6.20
2018-02-08T11:19:58.961Z,5.90
2018-02-08T11:22:01.377Z,6.30
2018-02-08T11:24:03.820Z,6.60
2018-02-08T11:26:06.244Z,5.43
2018-02-08T11:28:09.436Z,5.97
2018-02-08T11:30:11.888Z,7.07
2018-02-08T11:32:14.306Z,6.80
2018-02-08T11:34:16.736Z,6.68
2018-02-08T11:36:19.916Z,7.80
2018-02-08T11:38:23.098Z,6.30
2018-02-08T11:40:26.305Z,6.18
2018-02-08T11:42:29.499Z,8.73
2018-02-08T11:44:31.921Z,8.70
2018-02-08T11:46:34.346Z,7.70
2018-02-08T11:48:36.756Z,7.45
2018-02-08T11:50:39.188Z,8.07
2018-02-08T11:52:41.608Z,8.57
2018-02-08T11:54:44.044Z,6.47
2018-02-08T11:56:46.500Z,8.52
2018-02-08T11:58:48.921Z,7.53
2018-02-08T12:00:51.342Z,7.00
2018-02-08T12:02:53.773Z,7.28
2018-02-08T12:04:56.961Z,9.85
2018-02-08T12:07:00.160Z,7.75
2018-02-08T12:09:02.604Z,7.43
2018-02-08T12:11:05.805Z,9.30
2018-02-08T12:13:09.002Z,9.55
2018-02-08T12:15:11.421Z,8.68
2018-02-08T12:17:13.839Z,6.75
2018-02-08T12:19:16.297Z,7.28
2018-02-08T12:21:19.488Z,8.98
2018-02-08T12:23:22.673Z,7.95
2018-02-08T12:25:25.862Z,9.85
2018-02-08T12:27:28.450Z,10.85
2018-02-08T12:29:30.870Z,12.63
2018-02-08T12:31:34.802Z,13.30
2018-02-08T12:33:37.229Z,11.48
2018-02-08T12:35:39.706Z,12.10
2018-02-08T12:37:42.219Z,9.82
2018-02-08T12:39:44.570Z,9.38
2018-02-08T12:41:47.764Z,10.73
2018-02-08T12:43:51.228Z,10.63
2018-02-08T12:45:54.447Z,9.13
2018-02-08T12:47:57.680Z,10.27
2018-02-08T12:50:00.122Z,10.57
2018-02-08T12:52:02.554Z,14.13
2018-02-08T12:54:05.231Z,12.00
2018-02-08T12:56:07.694Z,12.57
2018-02-08T12:58:10.137Z,11.52
2018-02-08T13:00:12.553Z,8.88
2018-02-08T13:02:15.770Z,10.25
2018-02-08T13:04:18.200Z,9.95
2018-02-08T13:06:21.400Z,10.27
2018-02-08T13:08:24.622Z,11.25
2018-02-08T13:10:27.083Z,9.98
2018-02-08T13:12:29.695Z,10.48
2018-02-08T13:14:32.128Z,13.38
